createdAt,value
2022-08-20T00:00:46.927Z,93.91
2022-08-20T00:01:47.865Z,93.81
2022-08-20T00:02:48.717Z,93.61
2022-08-20T00:03:50.319Z,93.71
2022-08-20T00:04:53.875Z,93.71
2022-08-20T00:06:08.084Z,93.61
2022-08-20T00:07:00.363Z,93.71
2022-08-20T00:07:54.099Z,93.81
2022-08-20T00:08:58.896Z,94.02
2022-08-20T00:10:02.528Z,93.91
2022-08-20T00:11:02.781Z,93.91
2022-08-20T00:11:56.204Z,93.91
2022-08-20T00:12:57.539Z,93.71
2022-08-20T00:13:57.432Z,93.61
2022-08-20T00:14:59.111Z,93.61
2022-08-20T00:16:05.669Z,93.71
2022-08-20T00:17:00.721Z,93.61
2022-08-20T00:18:00.595Z,93.71
2022-08-20T00:19:01.474Z,93.41
2022-08-20T00:20:02.359Z,93.30
2022-08-20T00:21:03.254Z,93.21
2022-08-20T00:22:04.137Z,93.00
2022-08-20T00:23:08.542Z,92.90
2022-08-20T00:24:06.811Z,92.90
2022-08-20T00:25:06.689Z,92.90
2022-08-20T00:26:10.952Z,93.21
2022-08-20T00:27:13.080Z,93.10
2022-08-20T00:28:29.906Z,93.10
2022-08-20T00:29:17.940Z,93.10
2022-08-20T00:30:23.319Z,93.00
2022-08-20T00:31:12.400Z,93.21
2022-08-20T00:32:11.843Z,93.00
2022-08-20T00:33:13.916Z,93.00
2022-08-20T00:35:23.270Z,93.10
2022-08-20T00:36:17.198Z,93.30
2022-08-20T00:37:17.252Z,93.10
2022-08-20T00:38:17.031Z,93.10
2022-08-20T00:39:17.569Z,93.30
2022-08-20T00:40:22.061Z,93.30
2022-08-20T00:41:19.867Z,93.41
2022-08-20T00:42:19.335Z,93.51
2022-08-20T00:43:20.219Z,93.51
2022-08-20T00:44:21.103Z,93.51
2022-08-20T00:45:21.979Z,93.81
2022-08-20T00:46:22.870Z,93.81
2022-08-20T00:47:24.646Z,93.91
2022-08-20T00:48:24.520Z,93.91
2022-08-20T00:49:25.406Z,94.02
2022-08-20T00:50:26.290Z,94.22
2022-08-20T00:51:27.178Z,94.22
2022-08-20T00:52:27.702Z,94.32
2022-08-20T00:53:28.589Z,94.22
2022-08-20T00:54:29.485Z,94.22
2022-08-20T00:55:31.713Z,94.12
2022-08-20T00:56:31.171Z,94.22
2022-08-20T00:57:50.643Z,94.42
2022-08-20T00:58:33.821Z,94.42
2022-08-20T00:59:33.706Z,94.62
2022-08-20T01:00:34.618Z,94.67
2022-08-20T01:01:55.287Z,94.87
2022-08-20T01:02:37.280Z,94.77
2022-08-20T01:03:37.161Z,94.87
2022-08-20T01:04:38.033Z,94.98
2022-08-20T01:05:38.915Z,95.18
2022-08-20T01:06:39.797Z,95.18
2022-08-20T01:07:40.668Z,94.98
2022-08-20T01:08:41.551Z,94.98
2022-08-20T01:09:57.477Z,94.87
2022-08-20T01:10:44.233Z,94.67
2022-08-20T01:11:44.096Z,94.46
2022-08-20T01:12:44.978Z,94.37
2022-08-20T01:13:45.859Z,94.17
2022-08-20T01:14:46.850Z,93.96
2022-08-20T01:15:47.715Z,93.96
2022-08-20T01:16:48.600Z,94.06
2022-08-20T01:17:49.426Z,94.06
2022-08-20T01:18:50.296Z,93.96
2022-08-20T01:19:51.180Z,93.76
2022-08-20T01:20:52.073Z,93.65
2022-08-20T01:21:52.966Z,93.86
2022-08-20T01:22:53.884Z,94.37
2022-08-20T01:23:54.785Z,94.67
2022-08-20T01:24:55.661Z,94.67
2022-08-20T01:25:56.536Z,94.77
2022-08-20T01:26:57.426Z,94.77
2022-08-20T01:27:58.954Z,94.77
2022-08-20T01:28:59.382Z,94.98
2022-08-20T01:31:49.303Z,95.48
2022-08-20T01:32:50.167Z,95.38
2022-08-20T01:33:51.058Z,95.58
2022-08-20T01:34:51.976Z,95.68
2022-08-20T01:35:53.142Z,95.99
2022-08-20T01:36:53.529Z,95.89
2022-08-20T01:37:54.629Z,96.09
2022-08-20T01:38:55.036Z,95.89
2022-08-20T01:39:55.929Z,95.79
2022-08-20T01:40:58.895Z,95.68
2022-08-20T01:42:01.619Z,95.68
2022-08-20T01:42:59.762Z,95.48
2022-08-20T01:44:00.528Z,95.94
2022-08-20T01:45:04.382Z,95.94
2022-08-20T01:48:57.626Z,96.23
2022-08-20T01:49:58.448Z,96.03
2022-08-20T01:50:59.357Z,96.03
2022-08-20T01:52:00.261Z,96.03
2022-08-20T01:53:01.127Z,96.34
2022-08-20T01:54:02.017Z,96.19
2022-08-20T01:55:02.904Z,96.54
2022-08-20T01:56:03.783Z,96.34
2022-08-20T01:57:04.761Z,96.34
2022-08-20T01:58:05.566Z,96.34
2022-08-20T02:00:56.190Z,96.34
2022-08-20T02:01:57.692Z,96.54
2022-08-20T02:02:57.801Z,96.75
2022-08-20T02:04:00.038Z,96.54
2022-08-20T02:04:58.915Z,96.75
2022-08-20T02:05:59.899Z,96.64
2022-08-20T02:07:03.474Z,96.64
2022-08-20T02:08:03.226Z,96.95
2022-08-20T02:09:04.882Z,97.05
2022-08-20T02:10:02.807Z,97.05
2022-08-20T02:11:03.450Z,96.95
2022-08-20T02:12:07.425Z,97.15
2022-08-20T02:13:04.772Z,97.35
2022-08-20T02:14:09.202Z,97.45
2022-08-20T02:16:55.824Z,97.35
2022-08-20T02:17:56.909Z,97.45
2022-08-20T02:18:57.342Z,97.25
2022-08-20T02:19:58.226Z,96.84
2022-08-20T02:20:59.119Z,96.75
2022-08-20T02:22:00.034Z,96.44
2022-08-20T02:23:00.924Z,96.54
2022-08-20T02:24:01.840Z,96.75
2022-08-20T02:25:02.726Z,96.54
2022-08-20T02:26:03.626Z,96.84
2022-08-20T02:27:04.509Z,96.64
2022-08-20T02:28:10.688Z,96.84
2022-08-20T02:29:13.915Z,96.84
2022-08-20T02:30:08.547Z,96.84
2022-08-20T02:37:25.746Z,96.64
2022-08-20T02:37:55.175Z,96.75
2022-08-20T02:38:47.806Z,96.80
2022-08-20T02:39:48.774Z,96.80
2022-08-20T02:40:49.134Z,96.84
2022-08-20T02:41:50.088Z,97.05
2022-08-20T02:42:51.000Z,96.75
2022-08-20T02:43:51.842Z,96.84
2022-08-20T02:44:52.780Z,96.75
2022-08-20T02:47:25.806Z,96.64
2022-08-20T02:47:58.742Z,96.95
2022-08-20T02:49:08.909Z,97.05
2022-08-20T02:50:11.506Z,96.95
2022-08-20T02:51:28.629Z,97.25
2022-08-20T02:52:00.765Z,97.35
2022-08-20T02:53:07.574Z,97.35
2022-08-20T02:53:59.802Z,97.45
2022-08-20T02:55:00.778Z,97.45
2022-08-20T02:56:02.598Z,97.66
2022-08-20T02:57:03.321Z,97.76
2022-08-20T02:58:03.044Z,97.66
2022-08-20T02:59:03.938Z,97.45
2022-08-20T03:00:04.844Z,97.56
2022-08-20T03:01:05.768Z,97.56
2022-08-20T03:02:06.633Z,97.76
2022-08-20T03:03:07.506Z,97.56
2022-08-20T03:04:08.390Z,97.86
2022-08-20T03:05:12.287Z,97.86
2022-08-20T03:08:50.514Z,97.96
2022-08-20T03:11:43.596Z,97.76
2022-08-20T03:12:44.616Z,97.86
2022-08-20T03:13:44.971Z,97.66
2022-08-20T03:14:45.866Z,97.76
2022-08-20T03:15:46.800Z,97.96
2022-08-20T03:16:47.647Z,97.96
2022-08-20T03:17:48.546Z,97.76
2022-08-20T03:18:52.172Z,97.76
2022-08-20T03:19:50.216Z,97.76
2022-08-20T03:20:52.219Z,97.86
2022-08-20T03:21:51.683Z,97.86
2022-08-20T03:22:52.607Z,97.86
2022-08-20T03:23:53.494Z,97.86
2022-08-20T03:24:54.387Z,97.76
2022-08-20T03:25:55.288Z,97.96
2022-08-20T03:26:56.162Z,98.07
2022-08-20T03:27:57.325Z,97.96
2022-08-20T03:31:17.659Z,97.76
2022-08-20T03:34:09.698Z,97.76
2022-08-20T04:06:42.559Z,97.66
2022-08-20T04:07:41.076Z,97.66
2022-08-20T04:08:41.909Z,97.56
2022-08-20T04:09:42.855Z,97.56
2022-08-20T04:10:47.782Z,97.56
2022-08-20T04:12:06.668Z,97.86
2022-08-20T04:12:49.748Z,97.86
2022-08-20T04:13:46.777Z,97.66
2022-08-20T04:14:46.550Z,97.45
2022-08-20T04:15:55.270Z,97.56
2022-08-20T04:16:57.622Z,97.35
2022-08-20T04:17:49.960Z,97.45
2022-08-20T04:19:01.859Z,97.86
2022-08-20T04:22:00.162Z,97.76
2022-08-20T04:26:03.415Z,97.66
2022-08-20T04:27:04.398Z,97.76
2022-08-20T04:28:05.273Z,97.66
2022-08-20T04:29:06.602Z,97.66
2022-08-20T04:30:12.675Z,97.96
2022-08-20T04:31:12.361Z,97.96
2022-08-20T04:32:12.529Z,97.96
2022-08-20T04:33:09.637Z,97.96
2022-08-20T04:34:40.782Z,98.07
2022-08-20T04:38:00.808Z,97.66
2022-08-20T04:39:01.101Z,97.45
2022-08-20T04:40:02.316Z,97.45
2022-08-20T04:41:04.934Z,97.35
2022-08-20T04:42:26.546Z,97.25
2022-08-20T04:43:06.445Z,97.35
2022-08-20T04:44:35.432Z,97.35
2022-08-20T04:45:19.480Z,97.35
2022-08-20T04:47:56.411Z,97.66
2022-08-20T04:49:00.671Z,97.66
2022-08-20T04:56:51.264Z,97.86
2022-08-20T04:59:59.569Z,97.96
2022-08-20T05:03:08.654Z,97.86
2022-08-20T05:04:09.452Z,98.07
2022-08-20T05:06:59.257Z,98.27
2022-08-20T05:08:01.035Z,98.47
2022-08-20T05:09:02.903Z,98.37
2022-08-20T05:10:09.676Z,98.37
2022-08-20T05:11:06.936Z,98.37
2022-08-20T05:13:53.012Z,98.37
2022-08-20T05:14:53.470Z,98.27
2022-08-20T05:15:53.891Z,98.47
2022-08-20T05:16:54.663Z,98.37
2022-08-20T05:17:55.655Z,98.47
2022-08-20T05:18:57.357Z,98.68
2022-08-20T05:19:56.485Z,98.82
2022-08-20T05:21:04.252Z,98.92
2022-08-20T05:22:00.994Z,98.92
2022-08-20T05:22:59.740Z,99.02
2022-08-20T05:24:00.438Z,99.22
2022-08-20T05:25:00.540Z,99.22
2022-08-20T05:26:01.650Z,99.22
2022-08-20T05:28:58.433Z,99.33
2022-08-20T05:29:52.755Z,99.22
2022-08-20T05:30:52.087Z,99.13
2022-08-20T05:31:52.871Z,99.22
2022-08-20T05:32:53.710Z,99.33
2022-08-20T05:33:54.527Z,99.33
2022-08-20T05:34:55.346Z,99.43
2022-08-20T05:35:56.173Z,99.33
2022-08-20T05:36:56.991Z,99.43
2022-08-20T05:37:57.962Z,99.43
2022-08-20T05:38:58.784Z,99.22
2022-08-20T05:39:59.649Z,99.13
2022-08-20T05:41:00.432Z,99.43
2022-08-20T05:42:01.274Z,99.33
2022-08-20T05:43:02.090Z,99.33
2022-08-20T05:44:02.960Z,99.22
2022-08-20T05:45:03.798Z,99.33
2022-08-20T05:46:05.490Z,99.33
2022-08-20T05:47:05.312Z,99.53
2022-08-20T05:48:06.131Z,99.53
2022-08-20T05:49:06.966Z,99.74
2022-08-20T05:50:07.794Z,99.63
2022-08-20T05:51:12.088Z,99.84
2022-08-20T05:52:11.256Z,99.94
2022-08-20T05:53:10.220Z,99.99
2022-08-20T05:54:11.168Z,99.94
2022-08-20T05:55:12.074Z,99.99
2022-08-20T05:56:12.914Z,99.99
2022-08-20T05:57:13.838Z,99.99
2022-08-20T05:58:14.676Z,99.99
2022-08-20T05:59:15.563Z,99.99
2022-08-20T06:00:18.486Z,99.99
2022-08-20T06:01:18.018Z,99.99
2022-08-20T06:02:19.102Z,99.99
2022-08-20T06:03:18.991Z,99.99
2022-08-20T06:04:19.702Z,99.99
2022-08-20T06:05:20.090Z,99.79
2022-08-20T06:06:44.828Z,99.58
2022-08-20T06:07:22.676Z,99.49
2022-08-20T06:08:25.297Z,99.38
2022-08-20T06:09:31.067Z,99.38
2022-08-20T06:10:28.897Z,99.49
2022-08-20T06:11:36.998Z,99.58
2022-08-20T06:14:15.778Z,99.38
2022-08-20T06:15:17.659Z,99.38
2022-08-20T06:18:16.623Z,99.58
2022-08-20T06:19:09.051Z,99.38
2022-08-20T06:20:08.307Z,99.49
2022-08-20T06:21:08.872Z,99.49
2022-08-20T06:22:18.865Z,99.28
2022-08-20T06:23:11.404Z,99.08
2022-08-20T06:24:11.242Z,98.88
2022-08-20T06:25:12.091Z,99.08
2022-08-20T06:26:12.967Z,99.08
2022-08-20T06:27:13.786Z,99.08
2022-08-20T06:28:14.622Z,99.08
2022-08-20T06:29:15.462Z,99.08
2022-08-20T06:30:16.309Z,99.18
2022-08-20T06:31:17.198Z,98.97
2022-08-20T06:32:17.991Z,98.77
2022-08-20T06:33:19.816Z,98.77
2022-08-20T06:37:10.794Z,98.88
2022-08-20T06:38:11.306Z,98.77
2022-08-20T06:39:12.169Z,98.37
2022-08-20T06:40:13.244Z,98.37
2022-08-20T06:41:13.595Z,98.37
2022-08-20T06:42:14.426Z,98.47
2022-08-20T06:43:16.473Z,98.47
2022-08-20T06:44:16.114Z,98.68
2022-08-20T06:45:17.418Z,98.97
2022-08-20T06:46:24.303Z,98.93
2022-08-20T06:49:08.623Z,98.63
2022-08-20T06:50:10.319Z,98.52
2022-08-20T06:51:16.854Z,98.47
2022-08-20T06:52:09.758Z,98.12
2022-08-20T06:53:10.462Z,98.52
2022-08-20T06:54:11.304Z,98.63
2022-08-20T06:55:12.237Z,98.77
2022-08-20T06:56:13.057Z,98.97
2022-08-20T06:57:13.946Z,99.28
2022-08-20T06:58:36.565Z,99.64
2022-08-20T06:59:16.417Z,99.99
2022-08-20T07:00:16.278Z,99.99
2022-08-20T07:01:17.143Z,99.85
2022-08-20T07:02:17.959Z,99.24
2022-08-20T07:03:18.856Z,98.93
2022-08-20T07:04:22.802Z,98.93
2022-08-20T07:05:21.481Z,98.52
2022-08-20T07:06:21.327Z,98.52
2022-08-20T07:07:24.964Z,98.63
2022-08-20T07:08:27.236Z,98.63
2022-08-20T07:09:25.031Z,98.32
2022-08-20T07:10:25.499Z,98.52
2022-08-20T07:11:28.047Z,98.63
2022-08-20T07:12:26.021Z,98.73
2022-08-20T07:13:26.849Z,98.63
2022-08-20T07:14:27.784Z,98.73
2022-08-20T07:15:28.630Z,98.73
2022-08-20T07:16:29.451Z,98.73
2022-08-20T07:17:30.273Z,98.43
2022-08-20T07:18:31.144Z,98.43
2022-08-20T07:19:31.959Z,98.63
2022-08-20T07:20:32.854Z,98.52
2022-08-20T07:21:33.719Z,98.52
2022-08-20T07:22:34.528Z,98.63
2022-08-20T07:23:35.352Z,98.73
2022-08-20T07:24:40.446Z,98.83
2022-08-20T07:25:36.866Z,98.63
2022-08-20T07:26:37.624Z,98.52
2022-08-20T07:27:38.453Z,98.63
2022-08-20T07:28:39.285Z,98.63
2022-08-20T07:29:40.111Z,98.83
2022-08-20T07:30:56.500Z,98.93
2022-08-20T07:31:42.687Z,98.93
2022-08-20T07:32:45.399Z,98.83
2022-08-20T07:33:44.499Z,98.88
2022-08-20T07:34:44.753Z,98.93
2022-08-20T07:35:44.637Z,98.88
2022-08-20T07:36:45.500Z,98.79
2022-08-20T07:37:46.343Z,98.58
2022-08-20T07:38:47.198Z,98.48
2022-08-20T07:39:48.044Z,98.48
2022-08-20T07:40:48.886Z,98.38
2022-08-20T07:41:56.416Z,98.48
2022-08-20T07:42:51.433Z,98.48
2022-08-20T07:43:51.271Z,98.48
2022-08-20T07:44:52.115Z,98.18
2022-08-20T07:45:52.943Z,98.18
2022-08-20T07:46:53.764Z,98.07
2022-08-20T07:47:54.590Z,98.07
2022-08-20T07:48:55.421Z,98.18
2022-08-20T07:49:56.270Z,98.22
2022-08-20T07:50:57.085Z,98.32
2022-08-20T07:51:57.902Z,98.32
2022-08-20T07:52:58.723Z,98.22
2022-08-20T07:53:59.546Z,98.18
2022-08-20T07:55:00.364Z,98.12
2022-08-20T07:56:01.199Z,98.18
2022-08-20T07:57:02.018Z,98.07
2022-08-20T07:58:02.844Z,98.12
2022-08-20T07:59:03.662Z,98.18
2022-08-20T08:00:04.491Z,98.12
2022-08-20T08:01:05.414Z,97.87
2022-08-20T08:02:06.236Z,97.92
2022-08-20T08:03:07.082Z,98.12
2022-08-20T08:04:07.896Z,98.28
2022-08-20T08:05:08.903Z,98.52
2022-08-20T08:06:09.670Z,98.43
2022-08-20T08:07:10.828Z,98.43
2022-08-20T08:08:11.833Z,98.73
2022-08-20T08:09:12.244Z,98.83
2022-08-20T08:10:13.161Z,98.83
2022-08-20T08:11:14.008Z,98.83
2022-08-20T08:12:14.884Z,98.83
2022-08-20T08:13:15.698Z,98.93
2022-08-20T08:14:16.619Z,98.93
2022-08-20T08:15:17.408Z,99.24
2022-08-20T08:16:18.241Z,99.33
2022-08-20T08:17:19.082Z,99.44
2022-08-20T08:18:19.911Z,99.64
2022-08-20T08:19:20.767Z,99.64
2022-08-20T08:20:21.612Z,99.64
2022-08-20T08:21:22.460Z,99.74
2022-08-20T08:22:23.287Z,99.54
2022-08-20T08:23:24.859Z,99.64
2022-08-20T08:24:28.467Z,99.85
2022-08-20T08:25:25.501Z,99.85
2022-08-20T08:26:26.353Z,99.64
2022-08-20T08:27:27.164Z,99.74
2022-08-20T08:28:27.995Z,99.64
2022-08-20T08:29:28.605Z,99.44
2022-08-20T08:30:29.454Z,99.54
2022-08-20T08:31:30.284Z,99.44
2022-08-20T08:32:31.133Z,99.33
2022-08-20T08:33:31.962Z,99.24
2022-08-20T08:34:32.800Z,99.13
2022-08-20T08:35:33.719Z,98.93
2022-08-20T08:36:34.564Z,98.73
2022-08-20T08:37:35.429Z,98.63
2022-08-20T08:38:36.291Z,98.43
2022-08-20T08:39:37.215Z,98.38
2022-08-20T08:40:38.022Z,98.28
2022-08-20T08:41:38.846Z,98.07
2022-08-20T08:42:43.119Z,97.97
2022-08-20T08:43:40.191Z,97.87
2022-08-20T08:44:41.105Z,98.07
2022-08-20T08:45:41.954Z,98.38
2022-08-20T08:46:42.797Z,98.68
2022-08-20T08:47:43.620Z,98.79
2022-08-20T08:48:44.536Z,98.79
2022-08-20T08:49:45.345Z,98.79
2022-08-20T08:50:53.960Z,98.68
2022-08-20T08:51:47.880Z,98.38
2022-08-20T08:52:47.850Z,98.38
2022-08-20T08:53:48.613Z,98.38
2022-08-20T08:54:49.433Z,98.28
2022-08-20T08:55:50.260Z,97.97
2022-08-20T08:56:51.088Z,97.97
2022-08-20T08:57:51.909Z,98.48
2022-08-20T08:58:52.738Z,98.58
2022-08-20T09:00:03.375Z,98.68
2022-08-20T09:00:56.588Z,98.79
2022-08-20T09:01:57.411Z,98.68
2022-08-20T09:02:55.952Z,98.68
2022-08-20T09:03:56.767Z,98.58
2022-08-20T09:04:57.591Z,98.58
2022-08-20T09:05:58.421Z,98.48
2022-08-20T09:06:59.238Z,98.13
2022-08-20T09:08:00.058Z,98.03
2022-08-20T09:09:00.919Z,97.92
2022-08-20T09:10:01.753Z,97.92
2022-08-20T09:11:02.568Z,98.03
2022-08-20T09:12:03.576Z,98.13
2022-08-20T09:13:04.326Z,98.23
2022-08-20T09:14:05.147Z,98.23
2022-08-20T09:15:05.968Z,98.03
2022-08-20T09:16:06.791Z,98.03
2022-08-20T09:17:07.675Z,98.23
2022-08-20T09:18:08.508Z,98.23
2022-08-20T09:19:09.319Z,98.03
2022-08-20T09:20:10.138Z,98.13
2022-08-20T09:21:10.985Z,98.13
2022-08-20T09:22:11.814Z,98.03
2022-08-20T09:23:12.632Z,98.03
2022-08-20T09:24:13.458Z,98.13
2022-08-20T09:25:14.304Z,98.13
2022-08-20T09:26:15.120Z,97.92
2022-08-20T09:27:15.949Z,97.92
2022-08-20T09:28:16.764Z,97.83
2022-08-20T09:29:17.597Z,97.78
2022-08-20T09:30:18.530Z,97.67
2022-08-20T09:31:19.353Z,97.47
2022-08-20T09:32:20.890Z,97.47
2022-08-20T09:33:21.065Z,97.17
2022-08-20T09:34:21.659Z,96.87
2022-08-20T09:35:22.487Z,96.97
2022-08-20T09:36:29.122Z,96.97
2022-08-20T09:37:25.042Z,96.97
2022-08-20T09:38:24.863Z,97.27
2022-08-20T09:39:25.680Z,97.27
2022-08-20T09:40:26.605Z,96.66
2022-08-20T09:41:27.452Z,96.66
2022-08-20T09:42:28.291Z,96.62
2022-08-20T09:43:29.100Z,96.62
2022-08-20T09:44:29.926Z,97.02
2022-08-20T09:45:30.747Z,96.92
2022-08-20T09:46:31.584Z,96.72
2022-08-20T09:47:32.403Z,96.11
2022-08-20T09:48:33.237Z,95.61
2022-08-20T09:49:34.061Z,95.20
2022-08-20T09:50:34.887Z,95.20
2022-08-20T09:51:35.716Z,95.40
2022-08-20T09:52:40.520Z,95.30
2022-08-20T09:53:37.043Z,95.40
2022-08-20T09:54:37.869Z,95.40
2022-08-20T09:55:38.700Z,95.20
2022-08-20T09:56:39.526Z,95.30
2022-08-20T09:57:40.347Z,95.20
2022-08-20T09:58:41.175Z,95.20
2022-08-20T09:59:42.015Z,95.30
2022-08-20T10:00:42.835Z,95.10
2022-08-20T10:01:43.712Z,94.65
2022-08-20T10:02:44.502Z,94.75
2022-08-20T10:03:45.322Z,94.75
2022-08-20T10:04:46.148Z,94.75
2022-08-20T10:05:46.805Z,94.65
2022-08-20T10:06:47.626Z,94.04
2022-08-20T10:07:48.443Z,93.74
2022-08-20T10:08:49.274Z,93.54
2022-08-20T10:09:50.090Z,93.54
2022-08-20T10:10:50.916Z,93.63
2022-08-20T10:11:51.744Z,93.74
2022-08-20T10:12:54.866Z,93.63
2022-08-20T10:13:53.454Z,93.23
2022-08-20T10:14:54.275Z,93.43
2022-08-20T10:15:55.095Z,92.83
2022-08-20T10:16:55.953Z,92.72
2022-08-20T10:17:56.736Z,92.72
2022-08-20T10:18:57.506Z,92.72
2022-08-20T10:19:58.347Z,92.83
2022-08-20T10:20:59.218Z,92.83
2022-08-20T10:21:59.996Z,93.03
2022-08-20T10:23:00.820Z,93.33
2022-08-20T10:24:01.637Z,93.08
2022-08-20T10:25:02.460Z,93.59
2022-08-20T10:26:03.278Z,93.49
2022-08-20T10:27:04.111Z,93.08
2022-08-20T10:28:04.954Z,91.77
2022-08-20T10:29:05.762Z,91.27
2022-08-20T10:30:06.581Z,90.25
2022-08-20T10:31:07.425Z,90.36
2022-08-20T10:32:08.395Z,90.05
2022-08-20T10:33:09.223Z,90.36
2022-08-20T10:34:10.040Z,89.75
2022-08-20T10:35:10.857Z,88.84
2022-08-20T10:36:11.715Z,89.24
2022-08-20T10:37:12.514Z,89.34
2022-08-20T10:38:13.331Z,89.24
2022-08-20T10:39:14.161Z,89.20
2022-08-20T10:40:15.105Z,89.20
2022-08-20T10:41:15.944Z,89.40
2022-08-20T10:42:16.828Z,90.41
2022-08-20T10:43:17.617Z,90.31
2022-08-20T10:44:18.436Z,90.11
2022-08-20T10:45:19.262Z,90.41
2022-08-20T10:46:20.080Z,90.82
2022-08-20T10:47:20.916Z,90.58
2022-08-20T10:48:21.899Z,90.17
2022-08-20T10:49:22.661Z,90.27
2022-08-20T10:50:23.479Z,89.16
2022-08-20T10:51:32.247Z,88.96
2022-08-20T10:52:26.078Z,89.36
2022-08-20T10:53:25.935Z,87.84
2022-08-20T10:54:26.714Z,87.44
2022-08-20T10:55:27.543Z,87.13
2022-08-20T10:56:28.361Z,87.54
2022-08-20T10:57:29.208Z,87.84
2022-08-20T10:58:39.280Z,86.53
2022-08-20T10:59:31.739Z,86.33
2022-08-20T11:00:31.567Z,86.33
2022-08-20T11:01:36.168Z,86.69
2022-08-20T11:02:33.066Z,86.39
2022-08-20T11:03:33.893Z,87.40
2022-08-20T11:04:34.714Z,87.50
2022-08-20T11:05:35.550Z,87.10
2022-08-20T11:06:36.363Z,87.60
2022-08-20T11:07:55.696Z,87.60
2022-08-20T11:08:38.911Z,86.79
2022-08-20T11:09:38.738Z,86.65
2022-08-20T11:10:39.557Z,84.63
2022-08-20T11:11:40.394Z,83.72
2022-08-20T11:12:42.036Z,83.72
2022-08-20T11:13:41.777Z,84.43
2022-08-20T11:14:42.596Z,84.33
2022-08-20T11:15:43.423Z,83.62
2022-08-20T11:16:44.241Z,83.12
2022-08-20T11:17:45.077Z,83.58
2022-08-20T11:18:47.456Z,85.40
2022-08-20T11:19:46.502Z,86.00
2022-08-20T11:20:47.318Z,85.19
2022-08-20T11:21:48.138Z,84.75
2022-08-20T11:22:48.979Z,85.05
2022-08-20T11:23:49.802Z,84.45
2022-08-20T11:24:50.621Z,84.55
2022-08-20T11:25:51.440Z,85.05
2022-08-20T11:26:52.269Z,83.95
2022-08-20T11:27:53.235Z,83.24
2022-08-20T11:28:54.039Z,83.14
2022-08-20T11:29:54.871Z,82.23
2022-08-20T11:30:55.677Z,82.23
2022-08-20T11:31:56.529Z,83.14
2022-08-20T11:32:57.340Z,83.74
2022-08-20T11:33:58.171Z,83.34
2022-08-20T11:34:59.008Z,83.44
2022-08-20T11:35:59.817Z,80.92
2022-08-20T11:37:00.656Z,80.21
2022-08-20T11:38:01.482Z,81.32
2022-08-20T11:39:02.299Z,80.82
2022-08-20T11:40:03.165Z,80.72
2022-08-20T11:41:03.946Z,80.31
2022-08-20T11:42:04.782Z,80.92
2022-08-20T11:43:21.069Z,80.92
2022-08-20T11:44:20.775Z,82.84
2022-08-20T11:45:08.027Z,85.05
2022-08-20T11:46:07.905Z,86.07
2022-08-20T11:47:08.757Z,86.16
2022-08-20T11:48:09.575Z,86.22
2022-08-20T11:49:10.392Z,86.33
2022-08-20T11:50:11.199Z,86.73
2022-08-20T11:51:12.027Z,86.73
2022-08-20T11:52:12.862Z,86.43
2022-08-20T11:53:14.978Z,86.22
2022-08-20T11:54:14.360Z,85.22
2022-08-20T11:55:15.110Z,84.81
2022-08-20T11:56:15.971Z,83.80
2022-08-20T11:57:16.657Z,83.20
2022-08-20T11:58:17.482Z,83.20
2022-08-20T11:59:18.310Z,83.06
2022-08-20T12:00:19.138Z,82.05
2022-08-20T12:01:19.956Z,80.33
2022-08-20T12:02:20.843Z,79.63
2022-08-20T12:03:21.716Z,81.24
2022-08-20T12:04:22.491Z,80.84
2022-08-20T12:05:23.040Z,80.54
2022-08-20T12:06:23.880Z,80.54
2022-08-20T12:07:24.706Z,79.93
2022-08-20T12:08:27.216Z,79.73
2022-08-20T12:09:26.323Z,80.04
2022-08-20T12:10:27.152Z,80.74
2022-08-20T12:11:27.979Z,81.35
2022-08-20T12:12:28.805Z,81.91
2022-08-20T12:13:34.460Z,82.42
2022-08-20T12:14:31.348Z,82.21
2022-08-20T12:15:31.165Z,82.21
2022-08-20T12:16:31.992Z,81.51
2022-08-20T12:17:32.837Z,80.10
2022-08-20T12:18:33.654Z,80.40
2022-08-20T12:19:34.482Z,80.40
2022-08-20T12:20:35.311Z,80.36
2022-08-20T12:21:36.129Z,81.07
2022-08-20T12:22:36.969Z,80.16
2022-08-20T12:23:37.805Z,78.85
2022-08-20T12:24:38.622Z,77.95
2022-08-20T12:25:39.444Z,77.64
2022-08-20T12:26:40.268Z,78.55
2022-08-20T12:27:41.097Z,78.85
2022-08-20T12:28:41.925Z,78.25
2022-08-20T12:29:42.762Z,78.65
2022-08-20T12:30:43.571Z,79.36
2022-08-20T12:31:44.394Z,79.76
2022-08-20T12:32:45.227Z,80.26
2022-08-20T12:33:46.046Z,81.17
2022-08-20T12:34:46.867Z,82.18
2022-08-20T12:35:47.694Z,82.58
2022-08-20T12:36:48.513Z,83.18
2022-08-20T12:37:49.341Z,83.59
2022-08-20T12:38:50.170Z,83.59
2022-08-20T12:39:51.050Z,84.39
2022-08-20T12:40:51.816Z,85.30
2022-08-20T12:41:52.649Z,85.64
2022-08-20T12:42:53.472Z,86.15
2022-08-20T12:43:53.981Z,86.65
2022-08-20T12:44:54.808Z,86.65
2022-08-20T12:45:55.627Z,86.65
2022-08-20T12:46:56.445Z,87.15
2022-08-20T12:47:57.301Z,87.45
2022-08-20T12:48:58.115Z,87.65
2022-08-20T12:49:58.934Z,87.85
2022-08-20T12:50:59.761Z,87.85
2022-08-20T12:52:00.576Z,88.56
2022-08-20T12:53:01.405Z,89.11
2022-08-20T12:54:02.232Z,88.70
2022-08-20T12:55:03.053Z,88.60
2022-08-20T12:56:03.914Z,89.31
2022-08-20T12:57:07.985Z,89.71
2022-08-20T12:58:05.477Z,89.81
2022-08-20T12:59:06.305Z,89.91
2022-08-20T13:00:07.156Z,90.22
2022-08-20T13:01:08.053Z,90.01
2022-08-20T13:02:18.912Z,89.71
2022-08-20T13:03:10.561Z,89.81
2022-08-20T13:04:10.382Z,90.42
2022-08-20T13:05:11.208Z,90.42
2022-08-20T13:06:12.037Z,89.95
2022-08-20T13:07:12.856Z,89.75
2022-08-20T13:08:13.682Z,89.35
2022-08-20T13:09:14.509Z,89.45
2022-08-20T13:10:15.337Z,90.06
2022-08-20T13:11:16.168Z,90.56
2022-08-20T13:12:16.992Z,90.56
2022-08-20T13:13:20.657Z,90.26
2022-08-20T13:14:18.408Z,89.61
2022-08-20T13:15:19.229Z,88.85
2022-08-20T13:16:20.045Z,89.05
2022-08-20T13:17:31.842Z,89.11
2022-08-20T13:18:22.595Z,89.21
2022-08-20T13:19:22.421Z,89.21
2022-08-20T13:20:23.241Z,89.61
2022-08-20T13:21:24.196Z,89.71
2022-08-20T13:22:24.957Z,89.51
2022-08-20T13:23:25.819Z,89.61
2022-08-20T13:24:26.635Z,89.71
2022-08-20T13:25:27.462Z,89.71
2022-08-20T13:26:28.291Z,89.41
2022-08-20T13:27:29.117Z,89.17
2022-08-20T13:28:29.965Z,88.66
2022-08-20T13:29:30.807Z,88.26
2022-08-20T13:30:31.620Z,88.46
2022-08-20T13:31:32.437Z,88.16
2022-08-20T13:32:33.256Z,88.16
2022-08-20T13:33:34.108Z,88.62
2022-08-20T13:34:34.925Z,89.32
2022-08-20T13:35:35.763Z,88.12
2022-08-20T13:36:36.572Z,88.42
2022-08-20T13:37:37.399Z,88.22
2022-08-20T13:38:38.230Z,87.57
2022-08-20T13:39:39.093Z,87.17
2022-08-20T13:40:39.863Z,87.67
2022-08-20T13:41:40.707Z,87.07
2022-08-20T13:42:41.520Z,86.36
2022-08-20T13:43:42.364Z,86.66
2022-08-20T13:44:43.188Z,87.07
2022-08-20T13:45:44.008Z,86.16
2022-08-20T13:46:44.827Z,86.16
2022-08-20T13:47:45.661Z,86.57
2022-08-20T13:48:46.497Z,85.86
2022-08-20T13:49:47.323Z,85.66
2022-08-20T13:50:48.141Z,85.05
2022-08-20T13:51:48.967Z,85.66
2022-08-20T13:52:49.499Z,85.16
2022-08-20T13:53:50.411Z,85.20
2022-08-20T13:54:50.913Z,84.89
2022-08-20T13:55:51.743Z,85.10
2022-08-20T13:56:52.558Z,85.10
2022-08-20T13:57:53.393Z,85.50
2022-08-20T13:58:54.214Z,85.30
2022-08-20T13:59:55.040Z,85.40
2022-08-20T14:00:55.950Z,84.94
2022-08-20T14:01:56.831Z,84.83
2022-08-20T14:02:57.857Z,84.94
2022-08-20T14:03:58.232Z,85.14
2022-08-20T14:04:58.768Z,85.44
2022-08-20T14:05:59.595Z,85.58
2022-08-20T14:07:00.422Z,85.98
2022-08-20T14:08:01.253Z,86.38
2022-08-20T14:09:02.080Z,86.69
2022-08-20T14:10:02.984Z,86.58
2022-08-20T14:11:03.760Z,87.03
2022-08-20T14:12:04.576Z,87.54
2022-08-20T14:13:05.402Z,86.43
2022-08-20T14:14:06.230Z,85.82
2022-08-20T14:15:07.057Z,84.45
2022-08-20T14:16:07.879Z,82.87
2022-08-20T14:17:09.595Z,83.38
2022-08-20T14:18:09.423Z,84.33
2022-08-20T14:19:10.253Z,84.73
2022-08-20T14:20:11.091Z,85.88
2022-08-20T14:21:11.919Z,86.79
2022-08-20T14:22:12.748Z,87.40
2022-08-20T14:23:13.573Z,87.95
2022-08-20T14:24:14.404Z,87.95
2022-08-20T14:25:15.238Z,88.35
2022-08-20T14:26:16.062Z,88.45
2022-08-20T14:27:16.887Z,88.45
2022-08-20T14:28:18.259Z,88.90
2022-08-20T14:29:18.253Z,89.10
2022-08-20T14:30:19.100Z,89.91
2022-08-20T14:31:19.906Z,89.61
2022-08-20T14:32:20.743Z,89.70
2022-08-20T14:33:21.561Z,89.81
2022-08-20T14:34:22.391Z,89.50